Decoded Metar for KRDR (RED RIVER in ND, USA) (IATA:RDR) | Meteo·Mobile Aviation Weather
aviador You're here:

KRDR Decoded Metar

RED RIVER in ND, USA
Report Time2018-09-19 13:56:00
UTC Time2018-09-19 14:26:59
Flight Rules vfr VFR
Wind020° at 11 kt
W.Decomp.*RWY 35: 10.0 kt HW 4.5 kt RCW
W.Rank020° ranks 8
Current wind is above 020° avg. (10.2)
Visibility9999 m
Phenomena:N/A
Clouds:Few 160 Hf
Expected CloudBase > 800 ft AGL from Temp-Dew spread
CeilingNone
Temp09°C (ISA -4)
Dew Point07°C (87% RH)
AAT4.3°C
QNH1021 hPa
Density Alt279 ft
Elevation912 ft
Report Wrong Elevation
Raw Report
KRDR 191356Z AUTO 02011KT 10SM FEW160 09/07 A3014 RMK AO2
SLP217=

Extra information for KRDR:More info

Metar Taf Metar & Taf Last 4 Metars F.Rules Stats Wind Profile Meteogram Temp Stats Airport Information Weather charts Add Link Nearby VenuesMetar ALERT Operation Metar Decoded Social comments

AIRNAV info for KRDR